Time;durP1;ratioP1;P1;durP2;ratioP2;P2;SDS_P1;SDS_P2;PMS_P1;PMS_P2;Temp;Humidity;BMP_temperature;BMP_pressure;BME280_temperature;BME280_humidity;BME280_pressure;Samples;Min_cycle;Max_cycle;Signal;HPM_P1;HPM_P2
2022/09/22 00:01:02;;;;;;;0.93;0.93;;;;;;;;;;5015399;28;20219;-82
2022/09/22 00:03:31;;;;;;;0.73;0.73;;;;;;;;;;5019356;28;20213;-82
2022/09/22 00:06:03;;;;;;;0.57;0.57;;;;;;;;;;4996941;28;20206;-83
2022/09/22 00:08:33;;;;;;;0.60;0.60;;;;;;;;;;5029717;28;20294;-82
2022/09/22 00:11:04;;;;;;;0.80;0.80;;;;;;;;;;5022496;28;20223;-83
2022/09/22 00:13:33;;;;;;;0.70;0.70;;;;;;;;;;5013860;28;20306;-83
2022/09/22 00:16:02;;;;;;;0.60;0.60;;;;;;;;;;5015911;28;20238;-82
2022/09/22 00:18:30;;;;;;;0.60;0.60;;;;;;;;;;5015199;28;20264;-82
2022/09/22 00:21:06;;;;;;;0.60;0.60;;;;;;;;;;5015429;28;20231;-82
2022/09/22 00:23:35;;;;;;;1.93;1.73;;;;;;;;;;4984654;28;20203;-82
2022/09/22 00:26:09;;;;;;;0.70;0.70;;;;;;;;;;5014479;28;20199;-82
2022/09/22 00:28:38;;;;;;;1.03;1.03;;;;;;;;;;5022361;28;20215;-83
2022/09/22 00:31:07;;;;;;;3.57;3.43;;;;;;;;;;5032275;28;20274;-83
2022/09/22 00:33:36;;;;;;;0.70;0.70;;;;;;;;;;5014828;28;20231;-82
2022/09/22 00:36:05;;;;;;;0.90;0.90;;;;;;;;;;5017839;28;20218;-82
2022/09/22 00:38:34;;;;;;;0.60;0.60;;;;;;;;;;4997232;28;20286;-83
2022/09/22 00:41:03;;;;;;;0.60;0.60;;;;;;;;;;4997545;28;20223;-82
2022/09/22 00:43:36;;;;;;;0.60;0.60;;;;;;;;;;5007825;28;20268;-82
2022/09/22 00:46:07;;;;;;;0.80;0.80;;;;;;;;;;5013597;28;20199;-82
2022/09/22 00:48:38;;;;;;;0.60;0.60;;;;;;;;;;5014908;28;20206;-83
2022/09/22 00:51:08;;;;;;;0.60;0.60;;;;;;;;;;4984700;28;20330;-82
2022/09/22 00:53:36;;;;;;;0.60;0.60;;;;;;;;;;5009597;28;20211;-82
2022/09/22 00:56:06;;;;;;;0.60;0.60;;;;;;;;;;5015144;28;20277;-82
2022/09/22 00:58:46;;;;;;;0.50;0.50;;;;;;;;;;5012224;28;20225;-82
2022/09/22 01:01:15;;;;;;;0.50;0.50;;;;;;;;;;5006552;28;20230;-83
2022/09/22 01:03:44;;;;;;;0.60;0.60;;;;;;;;;;5002247;28;20228;-82
2022/09/22 01:06:15;;;;;;;0.70;0.70;;;;;;;;;;5014105;28;20286;-82
2022/09/22 01:08:44;;;;;;;0.60;0.60;;;;;;;;;;5009542;28;20245;-82
2022/09/22 01:11:13;;;;;;;0.60;0.60;;;;;;;;;;5007440;28;20237;-82
2022/09/22 01:13:47;;;;;;;0.60;0.60;;;;;;;;;;5015125;28;20210;-82
2022/09/22 01:16:22;;;;;;;0.60;0.60;;;;;;;;;;4998876;28;20210;-82
2022/09/22 01:18:55;;;;;;;0.60;0.60;;;;;;;;;;4998796;28;20198;-82
2022/09/22 01:21:26;;;;;;;0.97;0.97;;;;;;;;;;5005185;28;20191;-83
2022/09/22 01:24:17;;;;;;;0.50;0.50;;;;;;;;;;4999739;28;20246;-83
2022/09/22 01:27:00;;;;;;;0.50;0.50;;;;;;;;;;5017006;28;20233;-82
2022/09/22 01:29:38;;;;;;;0.60;0.60;;;;;;;;;;4984437;28;20318;-82
2022/09/22 01:32:12;;;;;;;0.60;0.60;;;;;;;;;;5015907;28;20341;-83
2022/09/22 01:34:46;;;;;;;0.60;0.60;;;;;;;;;;5013699;28;20233;-82
2022/09/22 01:37:17;;;;;;;0.60;0.60;;;;;;;;;;5018708;28;20202;-83
2022/09/22 01:39:48;;;;;;;0.70;0.70;;;;;;;;;;5018611;28;20207;-82
2022/09/22 01:42:18;;;;;;;0.60;0.60;;;;;;;;;;5012982;28;20247;-82
2022/09/22 01:44:50;;;;;;;1.77;1.67;;;;;;;;;;5012171;28;20298;-82
2022/09/22 01:47:21;;;;;;;0.50;0.50;;;;;;;;;;5008611;28;20247;-82
2022/09/22 01:49:52;;;;;;;0.60;0.60;;;;;;;;;;4999563;28;20271;-82
2022/09/22 01:52:22;;;;;;;0.60;0.60;;;;;;;;;;5017255;28;20211;-82
2022/09/22 01:54:53;;;;;;;0.70;0.70;;;;;;;;;;5010661;28;20270;-82
2022/09/22 01:57:23;;;;;;;0.60;0.60;;;;;;;;;;5012360;28;20211;-82
2022/09/22 01:59:53;;;;;;;0.60;0.60;;;;;;;;;;5008976;28;20302;-82
2022/09/22 02:02:24;;;;;;;0.60;0.60;;;;;;;;;;5018218;28;20246;-82
2022/09/22 02:04:54;;;;;;;0.60;0.60;;;;;;;;;;5024904;28;20211;-82
2022/09/22 02:07:24;;;;;;;1.00;1.00;;;;;;;;;;4999057;28;20282;-82
2022/09/22 02:09:54;;;;;;;0.63;0.63;;;;;;;;;;5028408;28;20255;-82
2022/09/22 02:12:22;;;;;;;0.60;0.60;;;;;;;;;;5011713;28;20207;-82
2022/09/22 02:14:51;;;;;;;0.60;0.60;;;;;;;;;;5010141;28;20294;-82
2022/09/22 02:17:19;;;;;;;0.60;0.60;;;;;;;;;;4986761;28;20279;-83
2022/09/22 02:19:51;;;;;;;0.60;0.60;;;;;;;;;;4999025;28;20223;-82
2022/09/22 02:22:19;;;;;;;0.60;0.60;;;;;;;;;;5016017;28;20192;-82
2022/09/22 02:24:47;;;;;;;0.60;0.60;;;;;;;;;;5004032;28;20213;-82
2022/09/22 02:27:19;;;;;;;0.70;0.70;;;;;;;;;;5016266;28;20220;-82
2022/09/22 02:29:50;;;;;;;0.70;0.70;;;;;;;;;;4998787;28;20295;-82
2022/09/22 02:32:19;;;;;;;0.50;0.50;;;;;;;;;;5006256;28;20229;-82
2022/09/22 02:34:48;;;;;;;0.57;0.57;;;;;;;;;;5017358;28;20329;-82
2022/09/22 02:37:22;;;;;;;0.60;0.60;;;;;;;;;;5025705;28;20204;-82
2022/09/22 02:39:57;;;;;;;0.60;0.60;;;;;;;;;;5002854;28;20223;-82
2022/09/22 02:42:30;;;;;;;0.60;0.60;;;;;;;;;;5017500;28;20198;-82
2022/09/22 02:45:02;;;;;;;0.60;0.60;;;;;;;;;;5010881;28;20199;-82
2022/09/22 02:47:33;;;;;;;0.70;0.70;;;;;;;;;;5011170;28;20195;-82
2022/09/22 02:50:03;;;;;;;0.60;0.60;;;;;;;;;;5017193;28;20198;-82
2022/09/22 02:52:33;;;;;;;0.60;0.60;;;;;;;;;;5034298;28;20257;-82
2022/09/22 02:55:01;;;;;;;0.60;0.60;;;;;;;;;;5026361;28;20298;-82
2022/09/22 02:57:29;;;;;;;0.70;0.70;;;;;;;;;;5000771;28;20215;-82
2022/09/22 02:59:58;;;;;;;0.60;0.60;;;;;;;;;;5017372;28;20207;-82
2022/09/22 03:02:26;;;;;;;0.60;0.60;;;;;;;;;;5004499;28;20297;-82
2022/09/22 03:04:56;;;;;;;0.60;0.60;;;;;;;;;;5007421;28;20200;-82
2022/09/22 03:07:24;;;;;;;0.60;0.60;;;;;;;;;;4997586;28;20200;-82
2022/09/22 03:09:54;;;;;;;0.63;0.63;;;;;;;;;;4997658;28;20218;-82
2022/09/22 03:12:22;;;;;;;0.60;0.60;;;;;;;;;;5027214;28;20214;-82
2022/09/22 03:14:51;;;;;;;0.70;0.70;;;;;;;;;;5009700;28;20222;-82
2022/09/22 03:17:19;;;;;;;0.70;0.70;;;;;;;;;;5034017;28;20203;-82
2022/09/22 03:19:48;;;;;;;0.60;0.60;;;;;;;;;;5004646;28;20229;-82
2022/09/22 03:22:16;;;;;;;0.70;0.70;;;;;;;;;;4997753;28;20311;-82
2022/09/22 03:24:45;;;;;;;0.70;0.70;;;;;;;;;;5001957;28;20197;-82
2022/09/22 03:27:15;;;;;;;0.70;0.70;;;;;;;;;;5004582;28;20203;-82
2022/09/22 03:29:43;;;;;;;0.67;0.67;;;;;;;;;;5016755;28;20202;-82
2022/09/22 03:32:12;;;;;;;0.80;0.80;;;;;;;;;;5016400;28;20277;-82
2022/09/22 03:34:40;;;;;;;0.70;0.70;;;;;;;;;;5001812;28;20238;-83
2022/09/22 03:37:09;;;;;;;0.70;0.70;;;;;;;;;;5005852;28;20199;-82
2022/09/22 03:39:37;;;;;;;0.70;0.70;;;;;;;;;;5016322;28;20294;-81
2022/09/22 03:42:05;;;;;;;0.63;0.63;;;;;;;;;;5006932;28;20199;-82
2022/09/22 03:44:35;;;;;;;0.60;0.60;;;;;;;;;;4997916;28;20204;-82
2022/09/22 03:47:04;;;;;;;0.80;0.80;;;;;;;;;;4997196;28;20216;-83
2022/09/22 03:49:32;;;;;;;1.37;1.37;;;;;;;;;;5013559;28;20198;-81
2022/09/22 03:52:00;;;;;;;0.60;0.60;;;;;;;;;;5002882;28;20205;-82
2022/09/22 03:54:29;;;;;;;0.70;0.70;;;;;;;;;;5017044;28;20256;-82
2022/09/22 03:56:57;;;;;;;0.70;0.70;;;;;;;;;;5022603;28;20191;-82
2022/09/22 03:59:26;;;;;;;0.60;0.60;;;;;;;;;;4996977;28;20238;-82
2022/09/22 04:01:56;;;;;;;0.60;0.60;;;;;;;;;;5008688;28;20226;-82
2022/09/22 04:04:25;;;;;;;0.80;0.80;;;;;;;;;;5031164;28;20191;-82
2022/09/22 04:06:54;;;;;;;0.60;0.60;;;;;;;;;;5000320;28;20239;-82
2022/09/22 04:09:22;;;;;;;0.60;0.60;;;;;;;;;;4997066;28;20195;-82
2022/09/22 04:11:50;;;;;;;2.03;2.03;;;;;;;;;;5027684;28;20206;-82
2022/09/22 04:14:19;;;;;;;1.43;1.43;;;;;;;;;;5016001;28;20223;-82
2022/09/22 04:16:47;;;;;;;0.70;0.70;;;;;;;;;;5015675;28;20249;-82
2022/09/22 04:19:18;;;;;;;0.70;0.70;;;;;;;;;;5024982;28;20203;-82
2022/09/22 04:21:46;;;;;;;1.27;1.27;;;;;;;;;;5011864;28;20218;-82
2022/09/22 04:24:32;;;;;;;0.70;0.70;;;;;;;;;;5071229;27;20615;-82
2022/09/22 04:27:01;;;;;;;0.70;0.70;;;;;;;;;;5069421;28;20233;-84
2022/09/22 04:29:46;;;;;;;0.70;0.70;;;;;;;;;;5069551;28;20201;-82
2022/09/22 04:32:15;;;;;;;0.70;0.70;;;;;;;;;;5069257;28;20221;-81
2022/09/22 04:34:43;;;;;;;4.17;3.87;;;;;;;;;;5069002;28;20205;-82
2022/09/22 04:37:12;;;;;;;0.70;0.70;;;;;;;;;;5070190;28;20193;-84
2022/09/22 04:39:42;;;;;;;0.70;0.70;;;;;;;;;;5070173;28;20230;-82
2022/09/22 04:42:10;;;;;;;0.70;0.70;;;;;;;;;;5068993;28;20349;-81
2022/09/22 04:44:39;;;;;;;0.60;0.60;;;;;;;;;;5068808;28;20338;-81
2022/09/22 04:47:07;;;;;;;0.70;0.70;;;;;;;;;;5070043;28;20200;-81
2022/09/22 04:49:35;;;;;;;0.70;0.70;;;;;;;;;;5069843;28;20254;-83
2022/09/22 04:52:04;;;;;;;0.70;0.70;;;;;;;;;;5069215;28;20232;-82
2022/09/22 04:54:32;;;;;;;0.60;0.60;;;;;;;;;;5068617;28;20208;-82
2022/09/22 04:57:02;;;;;;;1.30;1.27;;;;;;;;;;5068703;28;20201;-82
2022/09/22 04:59:31;;;;;;;1.00;1.00;;;;;;;;;;5085341;28;20217;-82
2022/09/22 05:01:59;;;;;;;1.33;1.33;;;;;;;;;;5055264;28;20222;-82
2022/09/22 05:04:27;;;;;;;1.20;1.20;;;;;;;;;;5036118;28;20237;-84
2022/09/22 05:06:56;;;;;;;4.33;2.93;;;;;;;;;;5062864;28;20233;-82
2022/09/22 05:09:24;;;;;;;1.00;1.00;;;;;;;;;;5056427;28;20262;-82
2022/09/22 05:11:54;;;;;;;3.73;2.23;;;;;;;;;;5084579;28;20201;-82
2022/09/22 05:14:24;;;;;;;5.73;3.83;;;;;;;;;;5059679;28;20193;-81
2022/09/22 05:16:53;;;;;;;1.77;1.67;;;;;;;;;;5081285;28;20205;-82
2022/09/22 05:19:22;;;;;;;3.00;1.73;;;;;;;;;;5059617;28;20232;-82
2022/09/22 05:21:50;;;;;;;0.80;0.80;;;;;;;;;;5061119;28;20201;-82
2022/09/22 05:24:19;;;;;;;3.43;3.13;;;;;;;;;;5048144;28;20310;-82
2022/09/22 05:26:47;;;;;;;5.07;4.07;;;;;;;;;;5065402;28;20196;-82
2022/09/22 05:29:17;;;;;;;5.20;4.37;;;;;;;;;;5067866;28;20234;-83
2022/09/22 05:31:47;;;;;;;8.33;6.33;;;;;;;;;;5079394;28;20244;-83
2022/09/22 05:34:15;;;;;;;2.03;1.93;;;;;;;;;;5055727;28;20201;-83
2022/09/22 05:36:44;;;;;;;11.60;5.13;;;;;;;;;;5054346;28;20226;-83
2022/09/22 05:39:12;;;;;;;1.43;1.33;;;;;;;;;;5071056;28;20226;-82
2022/09/22 05:41:40;;;;;;;8.37;6.30;;;;;;;;;;5022444;28;20233;-83
2022/09/22 05:44:09;;;;;;;0.90;0.90;;;;;;;;;;5048242;28;20228;-83
2022/09/22 05:46:37;;;;;;;7.40;6.47;;;;;;;;;;5071017;28;20206;-82
2022/09/22 05:49:07;;;;;;;6.13;4.77;;;;;;;;;;5041063;28;20213;-82
2022/09/22 05:51:35;;;;;;;10.77;8.50;;;;;;;;;;5054346;28;20250;-82
2022/09/22 05:54:04;;;;;;;8.83;7.80;;;;;;;;;;5051231;28;20264;-82
2022/09/22 05:56:32;;;;;;;10.83;8.90;;;;;;;;;;5043632;28;20233;-81
2022/09/22 05:59:01;;;;;;;14.00;9.20;;;;;;;;;;5050707;28;20206;-82
2022/09/22 06:01:29;;;;;;;15.17;10.70;;;;;;;;;;5043931;28;20242;-82
2022/09/22 06:03:58;;;;;;;13.37;7.73;;;;;;;;;;5053667;28;20286;-81
2022/09/22 06:06:28;;;;;;;16.47;9.77;;;;;;;;;;5054135;28;20206;-82
2022/09/22 06:08:56;;;;;;;18.53;9.63;;;;;;;;;;5055098;28;20189;-82
2022/09/22 06:11:24;;;;;;;10.03;7.90;;;;;;;;;;5054839;28;20259;-81
2022/09/22 06:13:53;;;;;;;12.83;9.67;;;;;;;;;;5043145;28;20193;-82
2022/09/22 06:16:21;;;;;;;9.73;7.83;;;;;;;;;;5058059;28;20293;-82
2022/09/22 06:18:49;;;;;;;14.40;11.23;;;;;;;;;;5033821;28;20244;-82
2022/09/22 06:21:18;;;;;;;15.57;8.57;;;;;;;;;;5034267;28;20198;-82
2022/09/22 06:23:47;;;;;;;11.43;9.53;;;;;;;;;;5046640;28;20273;-82
2022/09/22 06:26:16;;;;;;;9.43;7.60;;;;;;;;;;5034215;28;20257;-82
2022/09/22 06:28:45;;;;;;;12.50;9.23;;;;;;;;;;5044013;28;20216;-82
2022/09/22 06:31:13;;;;;;;3.43;2.93;;;;;;;;;;5056267;28;20203;-83
2022/09/22 06:33:47;;;;;;;13.93;9.63;;;;;;;;;;5033998;28;20228;-83
2022/09/22 06:36:19;;;;;;;11.17;8.83;;;;;;;;;;5048271;28;20197;-82
2022/09/22 06:38:49;;;;;;;14.43;10.03;;;;;;;;;;5043918;28;20198;-82
2022/09/22 06:41:17;;;;;;;11.23;9.67;;;;;;;;;;5036358;28;20285;-82
2022/09/22 06:43:47;;;;;;;11.17;9.87;;;;;;;;;;5043661;28;20240;-82
2022/09/22 06:46:17;;;;;;;7.63;5.17;;;;;;;;;;5036497;28;20206;-82
2022/09/22 06:48:45;;;;;;;11.83;8.47;;;;;;;;;;5045066;28;20266;-82
2022/09/22 06:51:14;;;;;;;3.90;3.50;;;;;;;;;;5036220;28;20202;-82
2022/09/22 06:53:43;;;;;;;4.93;4.43;;;;;;;;;;5033445;28;20203;-82
2022/09/22 06:56:18;;;;;;;13.50;4.70;;;;;;;;;;5020808;28;20194;-82
2022/09/22 06:58:48;;;;;;;11.43;10.07;;;;;;;;;;5033453;28;20294;-82
2022/09/22 07:01:36;;;;;;;10.43;7.23;;;;;;;;;;5033419;28;20222;-82
2022/09/22 07:04:05;;;;;;;13.20;10.40;;;;;;;;;;5050831;28;20260;-81
2022/09/22 07:06:36;;;;;;;10.00;8.83;;;;;;;;;;5030230;28;20203;-82
2022/09/22 07:09:05;;;;;;;13.37;10.07;;;;;;;;;;5045656;28;20199;-81
2022/09/22 07:11:36;;;;;;;3.33;3.13;;;;;;;;;;5033508;28;20289;-81
2022/09/22 07:14:13;;;;;;;10.63;8.03;;;;;;;;;;5028493;28;20290;-81
2022/09/22 07:16:43;;;;;;;4.50;3.60;;;;;;;;;;5017512;28;20278;-81
2022/09/22 07:19:55;;;;;;;5.23;4.83;;;;;;;;;;5019806;28;20230;-83
2022/09/22 07:22:38;;;;;;;14.53;12.77;;;;;;;;;;5027972;28;20279;-83
2022/09/22 07:25:27;;;;;;;11.57;8.10;;;;;;;;;;5019564;28;20286;-81
2022/09/22 07:28:04;;;;;;;14.47;12.80;;;;;;;;;;5013265;28;20226;-82
2022/09/22 07:30:37;;;;;;;12.37;11.10;;;;;;;;;;5011855;28;20208;-82
2022/09/22 07:33:11;;;;;;;11.70;7.57;;;;;;;;;;5011588;28;20207;-82
2022/09/22 07:35:40;;;;;;;13.03;7.33;;;;;;;;;;5006447;28;20286;-82
2022/09/22 07:38:10;;;;;;;15.80;9.00;;;;;;;;;;5029023;28;20202;-82
2022/09/22 07:40:39;;;;;;;6.57;6.00;;;;;;;;;;5020089;28;20249;-81
2022/09/22 07:43:11;;;;;;;9.03;8.10;;;;;;;;;;5007154;28;20200;-82
2022/09/22 07:45:44;;;;;;;10.47;7.50;;;;;;;;;;5020648;28;20220;-82
2022/09/22 07:51:07;;;;;;;7.83;6.23;;;;;;;;;;5023464;28;20274;-83
2022/09/22 07:53:43;;;;;;;2.30;2.20;;;;;;;;;;5021784;28;20435;-81
2022/09/22 07:56:14;;;;;;;12.50;10.00;;;;;;;;;;5013773;28;20282;-82
2022/09/22 07:58:48;;;;;;;10.83;8.70;;;;;;;;;;5033795;28;20208;-81
2022/09/22 08:01:20;;;;;;;16.77;11.93;;;;;;;;;;5037738;28;20235;-82
2022/09/22 08:03:49;;;;;;;13.30;12.00;;;;;;;;;;5010307;28;20219;-82
2022/09/22 08:06:22;;;;;;;16.13;13.57;;;;;;;;;;5033819;28;20294;-82
2022/09/22 08:08:55;;;;;;;15.90;13.00;;;;;;;;;;5022116;28;20285;-81
2022/09/22 08:11:25;;;;;;;10.33;8.63;;;;;;;;;;5038864;28;20268;-81
2022/09/22 08:13:58;;;;;;;10.53;9.53;;;;;;;;;;5009385;28;20203;-81
2022/09/22 08:16:32;;;;;;;12.47;11.27;;;;;;;;;;5009544;28;20211;-82
2022/09/22 08:19:02;;;;;;;11.67;10.53;;;;;;;;;;5023500;28;20214;-82
2022/09/22 08:21:34;;;;;;;9.83;7.57;;;;;;;;;;5021244;28;20238;-81
2022/09/22 08:24:03;;;;;;;7.47;6.83;;;;;;;;;;5017647;28;20294;-82
2022/09/22 08:26:32;;;;;;;6.80;4.40;;;;;;;;;;5018047;28;20238;-81
2022/09/22 08:29:02;;;;;;;8.67;5.17;;;;;;;;;;5011613;28;20209;-81
2022/09/22 08:31:30;;;;;;;7.00;5.40;;;;;;;;;;5025480;28;20306;-83
2022/09/22 08:33:59;;;;;;;6.53;5.73;;;;;;;;;;5009072;28;20201;-83
2022/09/22 08:36:30;;;;;;;5.47;4.87;;;;;;;;;;5003795;28;20303;-82
2022/09/22 08:39:04;;;;;;;8.20;5.57;;;;;;;;;;5029841;28;20237;-81
2022/09/22 08:41:47;;;;;;;9.60;6.43;;;;;;;;;;5018022;28;20220;-83
2022/09/22 08:44:48;;;;;;;9.20;8.27;;;;;;;;;;5033147;28;20215;-82
2022/09/22 08:53:23;;;;;;;4.53;3.93;;;;;;;;;;5042471;28;20212;-81
2022/09/22 08:55:56;;;;;;;7.83;7.03;;;;;;;;;;5022168;28;20197;-81
2022/09/22 08:58:36;;;;;;;8.37;4.50;;;;;;;;;;5047140;28;20207;-82
2022/09/22 09:01:16;;;;;;;6.80;6.13;;;;;;;;;;5009648;28;20260;-82
2022/09/22 09:03:57;;;;;;;7.53;5.43;;;;;;;;;;5011149;28;20235;-83
2022/09/22 09:06:35;;;;;;;9.57;5.73;;;;;;;;;;5011007;28;20226;-81
2022/09/22 09:09:14;;;;;;;4.70;4.00;;;;;;;;;;5025153;28;20243;-82
2022/09/22 09:12:04;;;;;;;2.23;2.03;;;;;;;;;;5011681;28;20209;-82
2022/09/22 09:14:45;;;;;;;5.87;3.73;;;;;;;;;;5012996;28;20213;-82
2022/09/22 09:17:15;;;;;;;5.87;5.27;;;;;;;;;;5011477;28;20210;-82
2022/09/22 09:19:54;;;;;;;1.30;1.20;;;;;;;;;;5008355;28;21639;-82
2022/09/22 09:22:27;;;;;;;6.17;4.50;;;;;;;;;;5015766;28;20229;-81
2022/09/22 09:24:58;;;;;;;3.43;2.77;;;;;;;;;;5009668;28;20295;-81
2022/09/22 09:27:48;;;;;;;5.77;5.27;;;;;;;;;;5017336;28;20218;-81
2022/09/22 09:30:18;;;;;;;10.83;6.13;;;;;;;;;;5017751;28;20215;-81
2022/09/22 09:32:49;;;;;;;0.70;0.70;;;;;;;;;;5009475;28;20202;-82
2022/09/22 09:35:25;;;;;;;8.60;4.33;;;;;;;;;;5015290;28;20207;-82
2022/09/22 09:37:58;;;;;;;2.53;2.33;;;;;;;;;;5030469;28;20303;-82
2022/09/22 09:40:27;;;;;;;3.83;1.80;;;;;;;;;;5010402;28;20225;-81
2022/09/22 09:43:02;;;;;;;9.47;6.50;;;;;;;;;;5017355;28;20211;-81
2022/09/22 09:45:35;;;;;;;10.23;6.47;;;;;;;;;;5013603;28;20262;-82
2022/09/22 09:48:17;;;;;;;3.33;2.37;;;;;;;;;;5008696;28;20216;-82
2022/09/22 09:50:51;;;;;;;5.90;4.43;;;;;;;;;;5016446;28;20213;-82
2022/09/22 09:53:30;;;;;;;9.70;4.57;;;;;;;;;;5010391;28;20211;-83
2022/09/22 09:56:17;;;;;;;6.60;4.70;;;;;;;;;;5013666;28;20221;-82
2022/09/22 10:01:54;;;;;;;7.03;5.23;;;;;;;;;;5022322;28;20464;-82
2022/09/22 10:04:33;;;;;;;7.03;5.10;;;;;;;;;;5020651;28;20209;-83
2022/09/22 10:07:15;;;;;;;5.60;3.73;;;;;;;;;;5014698;28;20230;-83
2022/09/22 10:09:54;;;;;;;0.40;0.40;;;;;;;;;;5025318;28;20210;-82
2022/09/22 10:12:33;;;;;;;5.07;4.43;;;;;;;;;;5009206;28;20223;-83
2022/09/22 10:15:22;;;;;;;5.10;4.07;;;;;;;;;;5013661;28;20215;-83
2022/09/22 10:18:22;;;;;;;6.93;6.00;;;;;;;;;;5012625;28;20227;-82
2022/09/22 10:21:16;;;;;;;4.70;4.10;;;;;;;;;;4988036;28;20211;-82
2022/09/22 10:24:06;;;;;;;6.67;5.30;;;;;;;;;;5012613;28;20238;-83
2022/09/22 10:27:04;;;;;;;4.17;3.33;;;;;;;;;;5019137;28;20298;-82
2022/09/22 10:29:42;;;;;;;3.37;3.00;;;;;;;;;;5034704;28;20206;-81
2022/09/22 10:32:19;;;;;;;4.63;4.23;;;;;;;;;;5013900;28;20294;-81
2022/09/22 10:34:49;;;;;;;8.37;5.37;;;;;;;;;;5013384;28;20215;-82
2022/09/22 10:37:25;;;;;;;2.60;2.30;;;;;;;;;;5025572;28;20286;-80
2022/09/22 10:40:02;;;;;;;4.33;3.60;;;;;;;;;;5009160;28;20195;-82
2022/09/22 10:42:36;;;;;;;6.90;3.37;;;;;;;;;;5014927;28;20207;-82
2022/09/22 10:45:10;;;;;;;6.63;4.60;;;;;;;;;;5012103;28;20206;-82
2022/09/22 10:47:50;;;;;;;7.77;5.67;;;;;;;;;;5015188;28;20402;-82
2022/09/22 10:50:30;;;;;;;7.60;3.63;;;;;;;;;;5013279;28;20223;-81
2022/09/22 10:53:07;;;;;;;2.90;2.60;;;;;;;;;;5015404;28;20217;-82
2022/09/22 10:55:52;;;;;;;2.93;2.70;;;;;;;;;;5012047;28;20206;-81
2022/09/22 10:58:38;;;;;;;6.70;3.93;;;;;;;;;;5010433;28;20274;-81
2022/09/22 11:01:20;;;;;;;2.07;1.97;;;;;;;;;;5024945;28;20231;-80
2022/09/22 11:04:00;;;;;;;2.40;1.90;;;;;;;;;;5007406;28;20210;-82
2022/09/22 11:12:36;;;;;;;2.87;2.67;;;;;;;;;;5026453;28;20203;-82
2022/09/22 11:15:18;;;;;;;2.30;2.13;;;;;;;;;;5025996;28;20677;-81
2022/09/22 11:17:59;;;;;;;8.43;4.40;;;;;;;;;;5026342;28;20200;-82
2022/09/22 11:20:36;;;;;;;4.43;3.30;;;;;;;;;;5020329;28;20214;-81
2022/09/22 11:23:23;;;;;;;0.60;0.60;;;;;;;;;;5010593;28;20242;-83
2022/09/22 11:28:56;;;;;;;3.47;3.00;;;;;;;;;;5006051;28;20301;-81
2022/09/22 11:31:36;;;;;;;1.63;1.53;;;;;;;;;;5023067;28;20221;-82
2022/09/22 11:34:13;;;;;;;1.13;1.03;;;;;;;;;;5008465;28;20211;-82
2022/09/22 11:36:47;;;;;;;6.43;3.80;;;;;;;;;;5008430;28;20220;-82
2022/09/22 11:39:30;;;;;;;0.40;0.40;;;;;;;;;;5017207;28;20215;-82
2022/09/22 11:42:08;;;;;;;4.57;2.67;;;;;;;;;;5021789;28;20207;-83
2022/09/22 11:44:42;;;;;;;3.83;2.73;;;;;;;;;;5007836;28;20234;-82
2022/09/22 11:47:25;;;;;;;0.40;0.40;;;;;;;;;;5025078;28;20208;-82
2022/09/22 11:50:12;;;;;;;1.33;1.23;;;;;;;;;;5010766;28;20199;-81
2022/09/22 11:52:53;;;;;;;5.60;4.20;;;;;;;;;;5010282;28;20211;-81
2022/09/22 11:55:32;;;;;;;7.97;3.83;;;;;;;;;;5038205;28;20214;-82
2022/09/22 11:58:02;;;;;;;3.87;2.73;;;;;;;;;;5007154;28;20212;-83
2022/09/22 12:00:41;;;;;;;1.20;1.10;;;;;;;;;;5026057;28;20232;-81
2022/09/22 12:03:13;;;;;;;2.10;1.97;;;;;;;;;;5008324;28;20210;-81
2022/09/22 12:05:44;;;;;;;5.23;3.70;;;;;;;;;;5019314;28;20210;-81
2022/09/22 12:08:14;;;;;;;4.17;3.63;;;;;;;;;;5020949;28;20792;-82
2022/09/22 12:10:44;;;;;;;6.57;4.50;;;;;;;;;;5010229;28;20213;-82
2022/09/22 12:13:15;;;;;;;1.83;1.27;;;;;;;;;;5009995;28;20203;-82
2022/09/22 12:15:48;;;;;;;3.37;2.37;;;;;;;;;;5010122;28;20234;-82
2022/09/22 12:18:25;;;;;;;4.03;2.03;;;;;;;;;;5005482;28;20215;-82
2022/09/22 12:20:57;;;;;;;3.07;1.90;;;;;;;;;;5008386;28;20278;-82
2022/09/22 12:23:37;;;;;;;4.03;2.73;;;;;;;;;;5012249;28;20283;-82
2022/09/22 12:26:09;;;;;;;4.30;3.30;;;;;;;;;;5011997;28;20204;-82
2022/09/22 12:28:39;;;;;;;5.20;4.00;;;;;;;;;;5027616;28;20251;-82
2022/09/22 12:31:12;;;;;;;3.53;2.47;;;;;;;;;;5011044;28;20205;-81
2022/09/22 12:33:47;;;;;;;2.67;2.00;;;;;;;;;;5015914;28;20345;-81
2022/09/22 12:36:17;;;;;;;2.43;1.87;;;;;;;;;;5008581;28;20199;-81
2022/09/22 12:38:46;;;;;;;3.73;3.33;;;;;;;;;;5016227;28;20212;-81
2022/09/22 12:41:20;;;;;;;4.07;3.40;;;;;;;;;;5030077;28;20207;-81
2022/09/22 12:43:51;;;;;;;3.40;2.70;;;;;;;;;;5026688;28;20217;-82
2022/09/22 12:46:28;;;;;;;3.03;2.57;;;;;;;;;;5030245;28;20294;-82
2022/09/22 12:48:59;;;;;;;0.50;0.50;;;;;;;;;;5029444;28;20213;-81
2022/09/22 12:51:32;;;;;;;5.23;3.03;;;;;;;;;;5014817;28;20204;-82
2022/09/22 12:54:21;;;;;;;2.30;1.57;;;;;;;;;;5012904;28;20209;-82
2022/09/22 12:56:56;;;;;;;5.97;3.03;;;;;;;;;;5014339;28;20297;-82
2022/09/22 12:59:58;;;;;;;0.90;0.90;;;;;;;;;;5010716;28;20206;-82
2022/09/22 13:02:46;;;;;;;3.83;3.07;;;;;;;;;;5029240;28;20230;-83
2022/09/22 13:05:36;;;;;;;2.83;2.03;;;;;;;;;;5010873;28;20203;-81
2022/09/22 13:08:14;;;;;;;2.47;2.27;;;;;;;;;;5025415;28;20195;-82
2022/09/22 13:11:04;;;;;;;5.33;3.93;;;;;;;;;;5010357;28;20219;-81
2022/09/22 13:13:53;;;;;;;5.63;4.00;;;;;;;;;;5027998;28;20230;-81
2022/09/22 13:16:37;;;;;;;4.43;2.40;;;;;;;;;;5029255;28;20235;-82
2022/09/22 13:19:10;;;;;;;1.30;1.27;;;;;;;;;;5012818;28;20199;-81
2022/09/22 13:21:39;;;;;;;6.17;4.30;;;;;;;;;;5013728;28;20215;-82
2022/09/22 13:24:17;;;;;;;3.90;3.50;;;;;;;;;;5013997;28;20242;-82
2022/09/22 13:26:45;;;;;;;8.03;3.67;;;;;;;;;;5011125;28;20207;-81
2022/09/22 13:29:14;;;;;;;5.00;4.43;;;;;;;;;;5008038;28;20241;-83
2022/09/22 13:31:44;;;;;;;8.03;4.53;;;;;;;;;;5011017;28;20337;-83
2022/09/22 13:34:28;;;;;;;4.77;4.23;;;;;;;;;;5019619;28;20298;-82
2022/09/22 13:36:59;;;;;;;4.60;2.33;;;;;;;;;;5018905;28;20226;-81
2022/09/22 13:39:29;;;;;;;5.13;3.20;;;;;;;;;;5012770;28;20200;-84
2022/09/22 13:41:59;;;;;;;5.43;3.73;;;;;;;;;;5013196;28;20204;-83
2022/09/22 13:44:30;;;;;;;5.40;4.47;;;;;;;;;;5011881;28;20206;-83
2022/09/22 13:46:59;;;;;;;7.67;5.20;;;;;;;;;;5009680;28;20821;-83
2022/09/22 13:49:35;;;;;;;6.10;5.27;;;;;;;;;;5023442;28;20211;-83
2022/09/22 13:52:06;;;;;;;6.20;5.53;;;;;;;;;;5008700;28;20314;-83
2022/09/22 13:54:35;;;;;;;5.50;3.53;;;;;;;;;;5023779;28;20309;-83
2022/09/22 13:57:05;;;;;;;7.20;2.60;;;;;;;;;;5010656;28;20217;-83
2022/09/22 13:59:37;;;;;;;9.20;4.27;;;;;;;;;;5009625;28;20205;-82
2022/09/22 14:02:07;;;;;;;5.97;3.50;;;;;;;;;;5011483;28;20235;-83
2022/09/22 14:04:38;;;;;;;6.43;3.83;;;;;;;;;;5018233;28;20212;-83
2022/09/22 14:07:09;;;;;;;4.30;3.50;;;;;;;;;;5010788;28;20207;-83
2022/09/22 14:09:39;;;;;;;5.93;4.07;;;;;;;;;;5026833;28;20212;-82
2022/09/22 14:12:08;;;;;;;3.00;2.80;;;;;;;;;;5018513;28;20210;-82
2022/09/22 14:14:38;;;;;;;4.10;3.07;;;;;;;;;;5015189;28;20211;-83
2022/09/22 14:17:08;;;;;;;4.50;3.80;;;;;;;;;;5012717;28;20218;-82
2022/09/22 14:19:39;;;;;;;1.33;1.13;;;;;;;;;;5025473;28;20249;-83
2022/09/22 14:22:14;;;;;;;3.83;2.47;;;;;;;;;;5006198;28;20232;-83
2022/09/22 14:24:44;;;;;;;1.37;1.27;;;;;;;;;;5013936;28;20234;-83
2022/09/22 14:27:17;;;;;;;1.70;1.60;;;;;;;;;;5023846;28;20309;-83
2022/09/22 14:29:49;;;;;;;3.47;2.60;;;;;;;;;;5013539;28;20303;-84
2022/09/22 14:32:21;;;;;;;3.50;1.90;;;;;;;;;;5009548;28;20203;-84
2022/09/22 14:34:52;;;;;;;2.50;2.40;;;;;;;;;;5014488;28;20228;-83
2022/09/22 14:37:26;;;;;;;1.87;1.77;;;;;;;;;;5023426;28;20278;-83
2022/09/22 14:39:56;;;;;;;3.17;2.20;;;;;;;;;;5007641;28;20224;-82
2022/09/22 14:42:27;;;;;;;2.53;2.17;;;;;;;;;;5023663;28;20207;-83
2022/09/22 14:45:16;;;;;;;1.37;1.37;;;;;;;;;;5026644;28;20198;-83
2022/09/22 14:47:45;;;;;;;2.97;1.53;;;;;;;;;;5009892;28;20206;-83
2022/09/22 14:50:19;;;;;;;4.40;3.00;;;;;;;;;;5005784;28;20208;-84
2022/09/22 14:52:52;;;;;;;1.50;0.90;;;;;;;;;;5017570;28;20210;-83
2022/09/22 14:55:27;;;;;;;0.50;0.50;;;;;;;;;;5031885;28;20218;-83
2022/09/22 14:57:57;;;;;;;0.70;0.70;;;;;;;;;;5013725;28;20321;-83
2022/09/22 15:03:17;;;;;;;3.70;2.17;;;;;;;;;;5009403;28;20841;-84
2022/09/22 15:05:49;;;;;;;2.00;1.73;;;;;;;;;;5021548;28;20505;-83
2022/09/22 15:08:19;;;;;;;1.00;1.00;;;;;;;;;;5030423;28;20209;-83
2022/09/22 15:10:55;;;;;;;3.20;1.43;;;;;;;;;;5027266;28;20214;-83
2022/09/22 15:13:31;;;;;;;2.63;1.57;;;;;;;;;;5024692;28;20211;-84
2022/09/22 15:16:00;;;;;;;2.20;2.00;;;;;;;;;;5018283;28;20199;-83
2022/09/22 15:18:29;;;;;;;1.83;1.63;;;;;;;;;;5052553;28;20209;-84
2022/09/22 15:21:05;;;;;;;0.50;0.50;;;;;;;;;;5026136;28;21724;-83
2022/09/22 15:23:38;;;;;;;1.43;1.33;;;;;;;;;;5029906;28;20319;-82
2022/09/22 15:26:07;;;;;;;3.17;1.97;;;;;;;;;;5022288;28;20208;-83
2022/09/22 15:28:37;;;;;;;1.20;1.13;;;;;;;;;;5029637;28;20215;-83
2022/09/22 15:31:05;;;;;;;5.53;2.30;;;;;;;;;;5028820;28;20205;-83
2022/09/22 15:33:34;;;;;;;0.80;0.80;;;;;;;;;;5020239;28;20203;-83
2022/09/22 15:36:05;;;;;;;2.40;1.67;;;;;;;;;;5030472;28;20211;-82
2022/09/22 15:38:37;;;;;;;1.47;1.27;;;;;;;;;;5029901;28;20226;-83